createdAt,value
2022-11-29T00:04:18.885Z,85.8
2022-11-29T00:09:54.446Z,85.5
2022-11-29T00:15:30.425Z,85.8
2022-11-29T00:21:06.740Z,85.9
2022-11-29T00:26:42.396Z,85.8
2022-11-29T00:32:17.531Z,86
2022-11-29T00:37:52.931Z,86.3
2022-11-29T00:43:29.335Z,85.6
2022-11-29T00:49:26.485Z,85.9
2022-11-29T00:54:59.515Z,86.1
2022-11-29T01:00:35.480Z,86.3
2022-11-29T01:06:10.735Z,86.3
2022-11-29T01:11:45.902Z,86.4
2022-11-29T01:17:20.758Z,86.3
2022-11-29T01:22:55.984Z,86.5
2022-11-29T01:28:32.341Z,86.3
2022-11-29T01:34:07.457Z,86.2
2022-11-29T01:39:42.625Z,86.4
2022-11-29T01:45:20.553Z,86.5
2022-11-29T01:50:56.613Z,86.7
2022-11-29T01:56:33.157Z,86.8
2022-11-29T02:02:08.295Z,87
2022-11-29T02:07:44.270Z,86.5
2022-11-29T02:13:20.935Z,86.5
2022-11-29T02:18:55.735Z,86.4
2022-11-29T02:24:31.501Z,86.3
2022-11-29T02:30:13.378Z,86.4
2022-11-29T02:35:48.378Z,86.4
2022-11-29T02:41:24.797Z,86.3
2022-11-29T02:47:21.946Z,86.7
2022-11-29T02:52:55.045Z,86.7
2022-11-29T02:58:30.302Z,85.4
2022-11-29T03:04:05.391Z,85.7
2022-11-29T03:09:40.711Z,86.2
2022-11-29T03:15:15.852Z,86.3
2022-11-29T03:20:53.036Z,86.3
2022-11-29T03:26:27.926Z,86.3
2022-11-29T03:32:04.177Z,86
2022-11-29T03:37:38.881Z,86
2022-11-29T03:43:16.212Z,85.9
2022-11-29T03:49:19.104Z,86.1
2022-11-29T03:54:51.550Z,86.1
2022-11-29T04:00:27.574Z,86.2
2022-11-29T04:06:02.948Z,86.4
2022-11-29T04:11:56.377Z,86.5
2022-11-29T04:17:31.776Z,86.6
2022-11-29T04:23:28.914Z,86.8
2022-11-29T04:29:04.020Z,87.2
2022-11-29T04:34:39.321Z,87.3
2022-11-29T04:40:15.160Z,87.3
2022-11-29T04:45:50.141Z,87.1
2022-11-29T04:51:25.705Z,87.1
2022-11-29T04:57:01.172Z,87.2
2022-11-29T05:02:48.198Z,86.9
2022-11-29T05:08:33.504Z,86.9
2022-11-29T05:14:08.353Z,87.4
2022-11-29T05:19:43.929Z,86.7
2022-11-29T05:25:19.266Z,87
2022-11-29T05:30:54.621Z,87.4
2022-11-29T05:36:33.648Z,87.4
2022-11-29T05:42:08.778Z,87.5
2022-11-29T05:48:14.429Z,87.1
2022-11-29T05:53:47.462Z,87.6
2022-11-29T05:59:22.840Z,87.4
2022-11-29T06:04:57.694Z,87.5
2022-11-29T06:10:32.481Z,87.8
2022-11-29T06:16:17.039Z,87.6
2022-11-29T06:22:52.159Z,87.7
2022-11-29T06:28:46.266Z,87.9
2022-11-29T06:34:46.654Z,87.6
2022-11-29T06:40:23.722Z,87.5
2022-11-29T06:46:29.735Z,87.6
2022-11-29T06:52:03.066Z,87.7
2022-11-29T06:57:37.834Z,87.7
2022-11-29T07:03:12.932Z,88.1
2022-11-29T07:08:48.224Z,87.7
2022-11-29T07:14:24.049Z,88
2022-11-29T07:19:59.440Z,87.9
2022-11-29T07:25:35.877Z,87.9
2022-11-29T07:31:11.034Z,88.2
2022-11-29T07:36:50.249Z,88.1
2022-11-29T07:42:31.178Z,88.1
2022-11-29T07:48:39.215Z,88.5
2022-11-29T07:54:12.335Z,89.2
2022-11-29T07:59:48.081Z,89
2022-11-29T08:05:33.286Z,88.7
2022-11-29T08:11:15.923Z,88
2022-11-29T08:16:52.320Z,87.8
2022-11-29T08:22:36.041Z,87.6
2022-11-29T08:28:11.223Z,87.3
2022-11-29T08:33:50.656Z,87.2
2022-11-29T08:39:29.463Z,86.5
2022-11-29T08:45:06.158Z,87
2022-11-29T08:50:41.654Z,87.4
2022-11-29T08:57:37.771Z,85.6
2022-11-29T09:03:54.284Z,85.3
2022-11-29T09:09:39.972Z,85
2022-11-29T09:15:20.026Z,84.4
2022-11-29T09:20:58.202Z,84.5
2022-11-29T09:26:33.495Z,84.6
2022-11-29T09:32:08.570Z,85.1
2022-11-29T09:37:44.290Z,86
2022-11-29T09:43:19.983Z,82.4
2022-11-29T09:48:58.344Z,82.5
2022-11-29T09:54:33.226Z,81
2022-11-29T10:00:09.128Z,82.6
2022-11-29T10:06:08.905Z,83.3
2022-11-29T10:11:44.452Z,79.7
2022-11-29T10:17:19.942Z,80.7
2022-11-29T10:22:55.175Z,79.3
2022-11-29T10:29:11.105Z,80.2
2022-11-29T10:34:47.128Z,79.6
2022-11-29T10:40:24.469Z,79
2022-11-29T10:45:59.699Z,81.1
2022-11-29T10:51:36.348Z,77.2
2022-11-29T10:57:33.301Z,77.7
2022-11-29T11:03:08.748Z,76.5
2022-11-29T11:08:43.840Z,77
2022-11-29T11:14:19.974Z,74.8
2022-11-29T11:19:55.520Z,75.2
2022-11-29T11:25:32.814Z,74.1
2022-11-29T11:31:10.445Z,75
2022-11-29T11:36:50.179Z,73.1
2022-11-29T11:42:31.428Z,71.2
2022-11-29T11:48:36.646Z,74.1
2022-11-29T11:54:09.770Z,71.5
2022-11-29T11:59:46.288Z,74.8
2022-11-29T12:05:22.272Z,77.7
2022-11-29T12:10:57.168Z,79.4
2022-11-29T12:17:00.763Z,79.7
2022-11-29T12:22:48.866Z,81.4
2022-11-29T12:28:37.993Z,80.6
2022-11-29T12:34:13.360Z,81.2
2022-11-29T12:39:48.278Z,80.6
2022-11-29T12:45:24.824Z,81.2
2022-11-29T12:51:02.597Z,77.1
2022-11-29T12:58:23.338Z,74.1
2022-11-29T13:03:59.523Z,74.9
2022-11-29T13:09:53.815Z,74.8
2022-11-29T13:15:29.908Z,78
2022-11-29T13:21:06.935Z,77.9
2022-11-29T13:26:42.670Z,76.6
2022-11-29T13:32:22.259Z,75.9
2022-11-29T13:38:05.109Z,69.2
2022-11-29T13:43:51.670Z,66.8
2022-11-29T13:49:39.391Z,68.5
2022-11-29T13:55:14.673Z,69.5
2022-11-29T14:00:50.071Z,73.1
2022-11-29T14:06:26.087Z,61.5
2022-11-29T14:12:09.238Z,67
2022-11-29T14:18:07.921Z,69.9
2022-11-29T14:23:46.998Z,72.5
2022-11-29T14:30:24.345Z,74.4
2022-11-29T14:35:59.527Z,75
2022-11-29T14:41:34.456Z,76.9
2022-11-29T14:47:09.671Z,77.8
2022-11-29T14:52:45.415Z,76
2022-11-29T14:58:31.539Z,78.2
2022-11-29T15:04:06.771Z,79.2
2022-11-29T15:09:42.052Z,80.1
2022-11-29T15:15:17.483Z,80.5
2022-11-29T15:20:54.607Z,79.8
2022-11-29T15:26:29.564Z,81.1
2022-11-29T15:32:05.036Z,81.9
2022-11-29T15:37:40.769Z,82.8
2022-11-29T15:43:29.198Z,82.7
2022-11-29T15:49:06.737Z,83.2
2022-11-29T15:54:41.855Z,83.6
2022-11-29T16:00:22.608Z,84.9
2022-11-29T16:05:57.522Z,85.5
2022-11-29T16:11:33.570Z,85.1
2022-11-29T16:17:08.766Z,85.6
2022-11-29T16:22:53.711Z,86.2
2022-11-29T16:28:30.116Z,86.7
2022-11-29T16:34:05.853Z,86.8
2022-11-29T16:39:40.723Z,87
2022-11-29T16:45:15.812Z,86.7
2022-11-29T16:50:52.252Z,85.8
2022-11-29T16:56:32.027Z,85.4
2022-11-29T17:02:35.208Z,86.3
2022-11-29T17:08:11.168Z,83.6
2022-11-29T17:13:47.639Z,82.2
2022-11-29T17:19:23.958Z,81.6
2022-11-29T17:25:11.424Z,81.2
2022-11-29T17:30:54.530Z,80.7
2022-11-29T17:36:32.658Z,80.4
2022-11-29T17:42:07.794Z,80.2
2022-11-29T17:48:04.560Z,79.7
2022-11-29T17:53:37.302Z,79.6
2022-11-29T17:59:12.624Z,79.4
2022-11-29T18:05:09.942Z,79.2
2022-11-29T18:10:58.419Z,79.2
2022-11-29T18:16:43.795Z,79.1
2022-11-29T18:22:28.900Z,79.1
2022-11-29T18:28:04.157Z,79
2022-11-29T18:34:25.286Z,78.7
2022-11-29T18:40:00.621Z,78.7
2022-11-29T18:45:57.095Z,78.8
2022-11-29T18:51:33.328Z,78.7
2022-11-29T18:57:08.787Z,78.6
2022-11-29T19:02:49.788Z,78.4
2022-11-29T19:08:25.171Z,78.1
2022-11-29T19:14:01.641Z,78
2022-11-29T19:19:38.837Z,78
2022-11-29T19:25:14.120Z,78.2
2022-11-29T19:30:49.301Z,78.2
2022-11-29T19:36:28.679Z,78.2
2022-11-29T19:42:25.211Z,78.1
2022-11-29T19:48:05.792Z,78
2022-11-29T19:53:40.610Z,78
2022-11-29T19:59:15.823Z,78.1
2022-11-29T20:04:51.190Z,78
2022-11-29T20:10:26.324Z,77.9
2022-11-29T20:16:01.966Z,77.8
2022-11-29T20:21:37.912Z,78.1
2022-11-29T20:27:13.290Z,78
2022-11-29T20:32:48.988Z,77.8
2022-11-29T20:38:24.014Z,77.6
2022-11-29T20:43:58.785Z,77.4
2022-11-29T20:49:33.654Z,77.5
2022-11-29T20:55:08.291Z,77.5
2022-11-29T21:00:46.484Z,77.6
2022-11-29T21:06:22.244Z,77.5
2022-11-29T21:12:18.638Z,77.7
2022-11-29T21:17:53.468Z,77.8
2022-11-29T21:23:28.809Z,77.4
2022-11-29T21:29:04.869Z,77.1
2022-11-29T21:35:02.049Z,77.1
2022-11-29T21:40:37.470Z,77.1
2022-11-29T21:46:12.711Z,77
2022-11-29T21:51:50.602Z,77
2022-11-29T21:57:26.887Z,76.9
2022-11-29T22:03:02.199Z,76.9
2022-11-29T22:08:37.989Z,76.8
2022-11-29T22:14:22.246Z,76.9
2022-11-29T22:20:03.314Z,77
2022-11-29T22:25:43.439Z,77
2022-11-29T22:31:20.120Z,76.9
2022-11-29T22:36:55.728Z,76.9
2022-11-29T22:42:31.317Z,77
2022-11-29T22:48:28.435Z,76.8
2022-11-29T22:54:03.392Z,76.9
2022-11-29T22:59:38.313Z,76.8
2022-11-29T23:05:13.820Z,76.8
2022-11-29T23:10:48.711Z,77
2022-11-29T23:16:24.123Z,77.2
2022-11-29T23:21:59.866Z,77.1
2022-11-29T23:27:35.915Z,77
2022-11-29T23:33:11.539Z,77
2022-11-29T23:38:47.950Z,76.8
2022-11-29T23:44:23.139Z,76.9
2022-11-29T23:49:59.044Z,76.8
2022-11-29T23:55:34.189Z,76.7
